Time;durP1;ratioP1;P1;durP2;ratioP2;P2;SDS_P1;SDS_P2;PMS_P1;PMS_P2;Temp;Humidity;BMP_temperature;BMP_pressure;BME280_temperature;BME280_humidity;BME280_pressure;Samples;Min_cycle;Max_cycle;Signal;HPM_P1;HPM_P2
2023/10/13 00:00:33;;;;;;;48.97;28.13;;;15.80;99.90;;;;;;5046480;28;20064;-87
2023/10/13 00:03:02;;;;;;;51.53;29.55;;;15.90;99.90;;;;;;5048491;28;20040;-87
2023/10/13 00:05:31;;;;;;;50.50;28.95;;;15.90;99.90;;;;;;5049201;28;20490;-87
2023/10/13 00:08:03;;;;;;;52.05;29.17;;;15.90;99.90;;;;;;5032363;28;20084;-87
2023/10/13 00:10:30;;;;;;;48.20;27.10;;;16.00;99.90;;;;;;5006384;28;20140;-87
2023/10/13 00:13:12;;;;;;;48.72;26.75;;;15.90;99.90;;;;;;5012383;28;20056;-87
2023/10/13 00:15:53;;;;;;;48.03;27.00;;;16.00;99.90;;;;;;5010642;28;20134;-87
2023/10/13 00:18:20;;;;;;;39.05;23.92;;;16.00;99.90;;;;;;5009314;28;20048;-87
2023/10/13 00:20:50;;;;;;;41.00;24.42;;;16.00;99.90;;;;;;5027264;28;20546;-87
2023/10/13 00:23:20;;;;;;;40.95;25.48;;;16.10;99.90;;;;;;5036475;28;20398;-88
2023/10/13 00:25:50;;;;;;;37.17;23.55;;;16.10;99.90;;;;;;5014486;28;20049;-87
2023/10/13 00:28:26;;;;;;;44.05;24.05;;;16.10;99.90;;;;;;5032295;28;20127;-87
2023/10/13 00:30:58;;;;;;;39.35;24.10;;;16.10;99.90;;;;;;5031265;28;20057;-87
2023/10/13 00:33:25;;;;;;;36.38;20.73;;;16.10;99.90;;;;;;5031284;28;20075;-87
2023/10/13 00:35:57;;;;;;;40.30;23.05;;;16.10;99.90;;;;;;5049890;28;20055;-88
2023/10/13 00:38:24;;;;;;;41.80;22.27;;;16.50;99.90;;;;;;5028583;28;20062;-88
2023/10/13 00:40:52;;;;;;;36.90;21.25;;;16.10;99.90;;;;;;5030843;28;20048;-87
2023/10/13 00:46:07;;;;;;;36.53;22.45;;;16.20;99.90;;;;;;5030540;28;20053;-87
2023/10/13 00:48:45;;;;;;;37.33;22.40;;;16.20;99.90;;;;;;5031430;28;20049;-87
2023/10/13 00:51:22;;;;;;;35.75;21.80;;;16.20;99.90;;;;;;5031059;28;20044;-87
2023/10/13 00:53:48;;;;;;;40.72;23.23;;;16.20;99.90;;;;;;5030662;28;20048;-86
2023/10/13 00:56:27;;;;;;;39.08;22.70;;;16.20;99.90;;;;;;5030615;28;20399;-86
2023/10/13 00:58:57;;;;;;;35.45;22.58;;;16.20;99.90;;;;;;5010464;28;20056;-87
2023/10/13 01:01:29;;;;;;;39.30;22.40;;;16.20;99.90;;;;;;5014361;28;20037;-87
2023/10/13 01:03:55;;;;;;;41.40;24.05;;;16.30;99.90;;;;;;5013720;28;20044;-87
2023/10/13 01:06:25;;;;;;;37.83;22.50;;;16.20;99.90;;;;;;5030937;28;20102;-85
2023/10/13 01:09:19;;;;;;;38.67;22.92;;;16.20;99.90;;;;;;5030487;28;20080;-86
2023/10/13 01:11:53;;;;;;;35.78;23.75;;;16.20;99.90;;;;;;5030882;28;20782;-86
2023/10/13 01:14:20;;;;;;;38.25;21.92;;;16.20;99.90;;;;;;5030882;28;20498;-87
2023/10/13 01:16:46;;;;;;;39.95;23.58;;;16.30;99.90;;;;;;5047188;28;20429;-87
2023/10/13 01:19:24;;;;;;;38.70;23.42;;;16.20;99.90;;;;;;5034673;28;20044;-87
2023/10/13 01:21:54;;;;;;;38.60;24.08;;;16.20;99.90;;;;;;5047637;28;20056;-86
2023/10/13 01:24:23;;;;;;;41.95;23.55;;;17.10;99.90;;;;;;5029676;28;20083;-87
2023/10/13 01:26:51;;;;;;;42.75;24.27;;;15.70;99.90;;;;;;5030039;28;20099;-87
2023/10/13 01:29:18;;;;;;;39.28;23.92;;;16.40;99.90;;;;;;5028069;28;20053;-86
2023/10/13 01:31:46;;;;;;;36.80;23.65;;;16.30;99.90;;;;;;5020039;28;20040;-86
2023/10/13 01:34:13;;;;;;;43.67;25.02;;;16.20;99.90;;;;;;5047371;28;21028;-87
2023/10/13 01:36:40;;;;;;;37.08;23.83;;;16.80;99.90;;;;;;5032678;28;20056;-87
2023/10/13 01:39:07;;;;;;;34.60;22.38;;;16.20;99.90;;;;;;5030145;28;20824;-86
2023/10/13 01:41:37;;;;;;;37.13;24.35;;;16.20;99.90;;;;;;5029585;28;20052;-87
2023/10/13 01:44:03;;;;;;;40.67;24.55;;;16.20;99.90;;;;;;5029631;28;20052;-87
2023/10/13 01:46:29;;;;;;;34.95;22.75;;;16.20;99.90;;;;;;5013819;28;20051;-86
2023/10/13 01:48:56;;;;;;;32.95;24.20;;;15.90;99.90;;;;;;5029848;28;20041;-88
2023/10/13 01:51:23;;;;;;;34.38;22.52;;;16.20;99.90;;;;;;5030290;28;20053;-85
2023/10/13 01:53:56;;;;;;;39.13;24.48;;;16.30;99.90;;;;;;5030036;28;20124;-86
2023/10/13 01:56:23;;;;;;;36.67;23.95;;;16.30;99.90;;;;;;5029876;28;20056;-87
2023/10/13 01:58:49;;;;;;;37.00;23.20;;;16.30;99.90;;;;;;5029881;28;20036;-88
2023/10/13 02:01:26;;;;;;;32.60;22.92;;;16.80;99.90;;;;;;5029623;28;20060;-87
2023/10/13 02:04:01;;;;;;;33.70;23.15;;;16.30;99.90;;;;;;5029921;28;20056;-88
2023/10/13 02:06:32;;;;;;;36.28;23.85;;;16.30;99.90;;;;;;5013602;28;20039;-88
2023/10/13 02:09:03;;;;;;;37.20;24.80;;;16.30;99.90;;;;;;5027635;28;20048;-88
2023/10/13 02:11:30;;;;;;;33.33;21.75;;;16.30;99.90;;;;;;5029018;28;20056;-87
2023/10/13 02:13:57;;;;;;;33.70;23.25;;;16.30;99.90;;;;;;5025176;28;20049;-87
2023/10/13 02:16:25;;;;;;;32.50;21.90;;;16.40;99.90;;;;;;5017135;28;20049;-87
2023/10/13 02:18:53;;;;;;;33.92;22.77;;;16.30;99.90;;;;;;5028673;28;20495;-89
2023/10/13 02:21:19;;;;;;;33.90;22.85;;;16.30;99.90;;;;;;5009952;28;20080;-87
2023/10/13 02:23:45;;;;;;;37.55;23.95;;;16.30;99.90;;;;;;5019999;28;20490;-88
2023/10/13 02:26:15;;;;;;;32.40;22.33;;;16.30;99.90;;;;;;5028713;28;20063;-87
2023/10/13 02:28:44;;;;;;;33.55;21.80;;;16.30;99.90;;;;;;5028865;28;20056;-87
2023/10/13 02:31:11;;;;;;;37.05;22.77;;;16.30;99.90;;;;;;5029571;28;20040;-87
2023/10/13 02:33:44;;;;;;;32.40;21.45;;;16.30;99.90;;;;;;5029564;28;20056;-87
2023/10/13 02:36:12;;;;;;;31.42;21.77;;;16.40;99.90;;;;;;5029074;28;20053;-88
2023/10/13 02:41:09;;;;;;;31.58;21.52;;;16.30;99.90;;;;;;5045373;28;20132;-87
2023/10/13 02:43:35;;;;;;;30.98;20.33;;;16.30;99.90;;;;;;5029110;28;20057;-88
2023/10/13 02:46:03;;;;;;;32.80;20.10;;;16.30;99.90;;;;;;5029853;28;20052;-88
2023/10/13 02:48:45;;;;;;;27.30;20.70;;;16.30;99.90;;;;;;5029467;28;20059;-88
2023/10/13 02:51:15;;;;;;;30.23;20.02;;;16.30;99.90;;;;;;5010155;28;20129;-87
2023/10/13 02:53:42;;;;;;;31.02;19.95;;;16.30;99.90;;;;;;5025821;28;20052;-88
2023/10/13 02:56:08;;;;;;;32.90;20.40;;;16.30;99.90;;;;;;5011015;28;20059;-88
2023/10/13 02:58:39;;;;;;;26.92;18.67;;;16.30;99.90;;;;;;5020972;28;20049;-88
2023/10/13 03:01:16;;;;;;;27.17;18.80;;;16.30;99.90;;;;;;5032727;28;20052;-87
2023/10/13 03:03:50;;;;;;;24.38;17.58;;;17.10;99.90;;;;;;5026107;28;20365;-87
2023/10/13 03:06:17;;;;;;;27.30;18.60;;;16.30;99.90;;;;;;5024339;28;20383;-87
2023/10/13 03:08:46;;;;;;;29.52;18.95;;;17.00;99.90;;;;;;5012557;28;20488;-87
2023/10/13 03:11:13;;;;;;;26.40;18.02;;;16.30;99.90;;;;;;5031018;28;20119;-87
2023/10/13 03:13:44;;;;;;;28.38;18.52;;;16.30;99.90;;;;;;5031450;28;20056;-87
2023/10/13 03:16:16;;;;;;;23.58;16.77;;;16.30;99.90;;;;;;5028320;28;20914;-87
2023/10/13 03:18:55;;;;;;;24.75;17.40;;;16.30;99.90;;;;;;5032209;28;20431;-87
2023/10/13 03:21:29;;;;;;;31.20;19.05;;;16.30;99.90;;;;;;5032784;28;20082;-88
2023/10/13 03:23:56;;;;;;;24.77;16.23;;;16.30;99.90;;;;;;5032818;28;20119;-88
2023/10/13 03:26:22;;;;;;;22.90;16.15;;;16.30;99.90;;;;;;5031881;28;20064;-87
2023/10/13 03:28:52;;;;;;;23.38;16.38;;;16.80;99.90;;;;;;5033173;28;20109;-88
2023/10/13 03:31:28;;;;;;;24.23;16.13;;;16.30;99.90;;;;;;5025701;28;20053;-88
2023/10/13 03:33:59;;;;;;;24.60;16.95;;;16.30;99.90;;;;;;5003168;28;20052;-89
2023/10/13 03:36:56;;;;;;;23.52;16.17;;;16.30;99.90;;;;;;5032332;28;20105;-88
2023/10/13 03:39:26;;;;;;;26.58;16.45;;;16.30;99.90;;;;;;5033164;28;20064;-89
2023/10/13 03:41:53;;;;;;;;;;;16.30;99.90;;;;;;5015431;28;20475;-88
2023/10/13 03:44:20;;;;;;;24.60;16.55;;;16.50;99.90;;;;;;5033394;28;20309;-88
2023/10/13 03:46:47;;;;;;;25.65;18.25;;;16.30;99.90;;;;;;5050709;28;20443;-88
2023/10/13 03:49:15;;;;;;;32.10;17.27;;;16.30;99.90;;;;;;5032945;28;20045;-88
2023/10/13 03:51:42;;;;;;;26.17;18.65;;;16.30;99.90;;;;;;5031809;28;20182;-88
2023/10/13 03:54:08;;;;;;;27.13;18.13;;;16.30;99.90;;;;;;5033463;28;20423;-88
2023/10/13 03:56:40;;;;;;;26.50;18.63;;;16.30;99.90;;;;;;5031698;28;20056;-89
2023/10/13 03:59:09;;;;;;;25.98;18.02;;;16.40;99.90;;;;;;5032744;28;20055;-89
2023/10/13 04:01:46;;;;;;;27.83;18.35;;;16.30;99.90;;;;;;5032447;28;20041;-88
2023/10/13 04:04:34;;;;;;;29.23;18.25;;;16.30;99.90;;;;;;5032226;28;20072;-89
2023/10/13 04:17:26;;;;;;;25.33;18.67;;;16.30;99.90;;;;;;5031932;28;20550;-88
2023/10/13 04:23:18;;;;;;;26.45;18.30;;;16.20;99.90;;;;;;5031881;28;20060;-89
2023/10/13 04:30:57;;;;;;;22.65;17.20;;;16.20;99.90;;;;;;5032589;28;20133;-89
2023/10/13 04:36:01;;;;;;;23.05;16.55;;;16.90;99.90;;;;;;5032107;28;20057;-88
2023/10/13 04:38:34;;;;;;;23.75;17.20;;;16.20;99.90;;;;;;5033434;28;20063;-88
2023/10/13 04:41:02;;;;;;;28.50;17.75;;;16.20;99.90;;;;;;5032950;28;20127;-90
2023/10/13 04:43:44;;;;;;;23.27;17.73;;;16.20;99.90;;;;;;5033968;28;20052;-88
2023/10/13 04:46:35;;;;;;;23.70;17.25;;;16.20;99.90;;;;;;5033515;28;20056;-91
2023/10/13 04:49:09;;;;;;;23.42;17.33;;;16.20;99.90;;;;;;5034321;28;20542;-90
2023/10/13 04:51:58;;;;;;;26.33;18.15;;;16.30;99.90;;;;;;5017293;28;20135;-89
2023/10/13 04:54:34;;;;;;;20.90;17.30;;;16.20;99.90;;;;;;5032020;28;20494;-89
2023/10/13 05:51:43;;;;;;;14.35;10.13;;;16.00;99.90;;;;;;5047455;28;20049;-89
2023/10/13 06:30:04;;;;;;;7.90;5.60;;;16.10;99.90;;;;;;5034695;28;20053;-89
2023/10/13 06:32:30;;;;;;;8.00;5.60;;;16.10;99.90;;;;;;5032712;28;20063;-86
2023/10/13 06:35:18;;;;;;;7.07;4.88;;;16.10;99.90;;;;;;5034180;28;20049;-87
2023/10/13 06:37:44;;;;;;;7.30;5.30;;;16.20;99.90;;;;;;5034371;28;20055;-89
2023/10/13 06:42:47;;;;;;;8.18;4.90;;;16.60;99.90;;;;;;5034024;28;20518;-88
2023/10/13 06:45:13;;;;;;;6.65;5.03;;;16.50;99.90;;;;;;5034243;28;20145;-88
2023/10/13 06:47:45;;;;;;;8.30;5.28;;;16.30;99.90;;;;;;5033788;28;20122;-87
2023/10/13 06:50:24;;;;;;;7.90;5.28;;;16.30;99.90;;;;;;5033120;28;20418;-88
2023/10/13 06:52:50;;;;;;;6.75;4.68;;;16.40;99.90;;;;;;5034073;28;20227;-87
2023/10/13 06:55:28;;;;;;;7.43;5.50;;;16.40;99.90;;;;;;5033653;28;20048;-87
2023/10/13 06:58:00;;;;;;;6.60;5.00;;;16.80;99.90;;;;;;5033264;28;20087;-89
2023/10/13 07:00:34;;;;;;;8.63;4.60;;;16.40;99.90;;;;;;5033474;28;20045;-89
2023/10/13 07:03:08;;;;;;;8.13;4.63;;;16.40;99.90;;;;;;5033918;28;20053;-87
2023/10/13 07:05:38;;;;;;;11.02;4.90;;;16.50;99.90;;;;;;5038877;28;20041;-90
2023/10/13 07:08:07;;;;;;;5.32;4.25;;;16.50;99.90;;;;;;5019037;28;20124;-91
2023/10/13 07:10:44;;;;;;;9.00;4.65;;;17.20;99.90;;;;;;5018915;28;20127;-90
2023/10/13 07:13:13;;;;;;;8.85;4.40;;;16.50;99.90;;;;;;5035354;28;20069;-89
2023/10/13 07:15:44;;;;;;;7.95;3.90;;;17.30;99.90;;;;;;5018694;28;20056;-87
2023/10/13 07:18:16;;;;;;;6.10;4.30;;;16.90;99.90;;;;;;5035356;28;20045;-89
2023/10/13 07:20:43;;;;;;;7.90;4.20;;;16.60;99.90;;;;;;5018780;28;20049;-91
2023/10/13 07:23:20;;;;;;;6.22;4.13;;;17.50;99.90;;;;;;5020285;28;20187;-90
2023/10/13 07:26:02;;;;;;;6.78;4.22;;;16.50;99.90;;;;;;5035133;28;20049;-88
2023/10/13 07:28:30;;;;;;;6.90;4.15;;;17.00;99.90;;;;;;5034890;28;20045;-87
2023/10/13 07:33:26;;;;;;;8.60;4.38;;;16.90;99.90;;;;;;5035012;28;20410;-89
2023/10/13 07:36:11;;;;;;;8.70;4.63;;;16.50;99.90;;;;;;5033665;28;20041;-88
2023/10/13 07:38:37;;;;;;;7.50;4.30;;;16.50;99.90;;;;;;5034615;28;20060;-87
2023/10/13 07:41:09;;;;;;;12.75;5.15;;;16.50;99.90;;;;;;5016211;28;20513;-88
2023/10/13 07:43:39;;;;;;;10.38;5.15;;;17.10;99.90;;;;;;5017961;28;20049;-90
2023/10/13 07:46:09;;;;;;;10.43;5.40;;;17.50;99.90;;;;;;5016403;28;20049;-90
2023/10/13 07:48:36;;;;;;;8.15;4.85;;;16.50;99.90;;;;;;5026911;28;20128;-87
2023/10/13 07:51:05;;;;;;;7.57;4.45;;;17.30;99.90;;;;;;5017450;28;20493;-88
2023/10/13 07:53:34;;;;;;;9.80;4.85;;;16.50;99.90;;;;;;5030444;28;20406;-90
2023/10/13 07:56:08;;;;;;;8.93;4.97;;;16.70;99.90;;;;;;5012309;28;20082;-88
2023/10/13 07:58:47;;;;;;;11.55;5.00;;;16.50;99.90;;;;;;5033817;28;20049;-89
2023/10/13 08:01:19;;;;;;;8.75;4.82;;;16.50;99.90;;;;;;5034290;28;20041;-90
2023/10/13 08:03:46;;;;;;;10.60;5.18;;;16.50;99.90;;;;;;5033218;28;20143;-88
2023/10/13 08:08:43;;;;;;;15.85;6.32;;;16.50;99.90;;;;;;5034166;28;20194;-88
2023/10/13 08:11:25;;;;;;;11.98;6.07;;;16.60;99.90;;;;;;5032495;28;20055;-89
2023/10/13 08:13:59;;;;;;;10.60;6.23;;;16.90;99.90;;;;;;5030426;28;20076;-91
2023/10/13 08:19:17;;;;;;;9.55;5.80;;;16.60;99.90;;;;;;5024146;28;20124;-89
2023/10/13 08:21:57;;;;;;;16.60;6.55;;;16.70;99.90;;;;;;5018207;28;20056;-85
2023/10/13 08:45:53;;;;;;;15.15;6.68;;;16.90;99.90;;;;;;5021727;28;20124;-87
2023/10/13 08:53:31;;;;;;;13.55;7.35;;;17.70;99.90;;;;;;5031945;28;20103;-91
2023/10/13 09:07:15;;;;;;;17.35;7.85;;;17.30;99.90;;;;;;5032334;28;20053;-89
2023/10/13 09:13:00;;;;;;;15.90;7.33;;;17.50;99.90;;;;;;5031383;28;20053;-87
2023/10/13 09:20:32;;;;;;;8.52;6.47;;;18.50;99.90;;;;;;5030299;28;20164;-89
2023/10/13 09:25:38;;;;;;;14.02;6.65;;;18.30;99.90;;;;;;5030917;28;20564;-90
2023/10/13 09:28:15;;;;;;;14.45;6.80;;;17.80;99.90;;;;;;5015030;28;20036;-89
2023/10/13 09:30:45;;;;;;;10.18;6.75;;;18.10;99.90;;;;;;5031239;28;20568;-89
2023/10/13 09:33:20;;;;;;;10.77;6.97;;;18.10;99.90;;;;;;5014877;28;20091;-89
2023/10/13 09:35:49;;;;;;;11.30;6.25;;;18.00;99.90;;;;;;5031018;28;20052;-90
2023/10/13 09:38:19;;;;;;;13.13;6.63;;;18.00;99.90;;;;;;5016144;28;20076;-89
2023/10/13 09:40:51;;;;;;;14.73;5.90;;;17.90;99.90;;;;;;5030383;28;20315;-89
2023/10/13 09:43:18;;;;;;;;;;;18.00;99.90;;;;;;5048712;28;20053;-88
2023/10/13 09:46:02;;;;;;;12.05;5.85;;;18.70;99.90;;;;;;5015768;28;19985;-88
2023/10/13 09:48:40;;;;;;;13.38;6.38;;;18.20;99.90;;;;;;5018058;28;20040;-89
2023/10/13 09:51:19;;;;;;;12.45;6.18;;;18.20;99.90;;;;;;5032732;28;20044;-89
2023/10/13 09:53:58;;;;;;;15.80;6.55;;;18.20;99.90;;;;;;5031215;28;20065;-91
2023/10/13 09:56:51;;;;;;;13.98;6.45;;;18.30;99.90;;;;;;5032732;28;20049;-89
2023/10/13 09:59:34;;;;;;;15.50;6.25;;;18.30;99.90;;;;;;5047818;28;20110;-89
2023/10/13 10:02:08;;;;;;;12.27;6.45;;;18.30;99.90;;;;;;5015100;28;20048;-88
2023/10/13 10:04:44;;;;;;;11.98;5.85;;;18.30;99.90;;;;;;5016513;28;20102;-87
2023/10/13 10:07:10;;;;;;;8.23;5.40;;;18.30;99.90;;;;;;5035744;28;20975;-90
2023/10/13 10:09:43;;;;;;;15.10;6.10;;;18.30;99.90;;;;;;5010854;28;20128;-88
2023/10/13 10:12:21;;;;;;;10.18;5.70;;;19.20;99.90;;;;;;5031451;28;20053;-89
2023/10/13 10:15:28;;;;;;;14.27;6.32;;;18.50;99.90;;;;;;5019789;28;20420;-88
2023/10/13 10:17:54;;;;;;;11.77;5.55;;;18.50;99.90;;;;;;5017062;28;20055;-87
2023/10/13 10:20:47;;;;;;;12.65;6.05;;;18.50;99.90;;;;;;5014258;28;20045;-88
2023/10/13 10:23:24;;;;;;;10.63;5.68;;;18.50;99.90;;;;;;5031661;28;20120;-88
2023/10/13 10:25:51;;;;;;;12.20;5.95;;;19.20;99.90;;;;;;5015020;28;20170;-90
2023/10/13 10:28:19;;;;;;;13.30;5.32;;;18.90;99.90;;;;;;5012579;28;20052;-86
2023/10/13 10:30:45;;;;;;;9.75;5.18;;;19.00;99.90;;;;;;5014439;28;20041;-87
2023/10/13 10:33:18;;;;;;;11.70;5.40;;;19.10;99.90;;;;;;5032116;28;20057;-88
2023/10/13 10:35:59;;;;;;;11.65;5.38;;;19.70;99.90;;;;;;5014074;28;20045;-90
2023/10/13 10:38:32;;;;;;;8.98;5.20;;;19.80;99.90;;;;;;5026741;28;20049;-88
2023/10/13 10:41:04;;;;;;;9.90;5.20;;;19.30;99.90;;;;;;5013881;28;20514;-91
2023/10/13 10:43:48;;;;;;;;;;;19.40;99.90;;;;;;5034524;28;20056;-90
2023/10/13 10:46:17;;;;;;;13.10;5.50;;;19.30;99.90;;;;;;5034079;28;19925;-89
2023/10/13 10:48:43;;;;;;;14.45;5.90;;;19.50;99.90;;;;;;5016943;28;20128;-91
2023/10/13 10:51:21;;;;;;;14.70;5.40;;;19.90;99.90;;;;;;5032716;28;20129;-88
2023/10/13 10:53:51;;;;;;;16.33;5.53;;;19.40;99.90;;;;;;5033022;28;20049;-88
2023/10/13 10:59:04;;;;;;;11.70;5.68;;;19.40;99.90;;;;;;5034800;28;20064;-89
2023/10/13 11:01:38;;;;;;;18.60;6.20;;;19.40;99.90;;;;;;5032682;28;20049;-88
2023/10/13 11:04:14;;;;;;;15.02;5.97;;;19.40;99.90;;;;;;5033159;28;20045;-91
2023/10/13 11:06:55;;;;;;;12.02;5.80;;;19.40;99.90;;;;;;5023529;28;20133;-87
2023/10/13 11:12:05;;;;;;;16.38;6.00;;;19.30;99.90;;;;;;5029425;28;20049;-91
2023/10/13 11:14:35;;;;;;;13.93;5.90;;;19.30;99.90;;;;;;5011868;28;20073;-89
2023/10/13 11:17:05;;;;;;;11.00;5.80;;;19.30;99.90;;;;;;5029562;28;21026;-90
2023/10/13 11:19:35;;;;;;;12.85;6.00;;;19.40;99.90;;;;;;5015264;28;20069;-92
2023/10/13 11:22:10;;;;;;;11.18;5.60;;;19.40;99.90;;;;;;5017699;28;20084;-93
2023/10/13 11:24:42;;;;;;;16.17;6.93;;;19.40;99.90;;;;;;5010997;28;20045;-90
2023/10/13 11:27:16;;;;;;;;;;;19.60;99.90;;;;;;5015989;28;20110;-91
2023/10/13 11:29:41;;;;;;;20.45;6.75;;;19.40;99.90;;;;;;5015221;28;19921;-91
2023/10/13 11:32:08;;;;;;;16.77;6.28;;;19.40;99.90;;;;;;5017011;28;20053;-93
2023/10/13 11:34:39;;;;;;;15.02;5.75;;;19.50;99.90;;;;;;5033815;28;20045;-94
2023/10/13 11:37:56;;;;;;;8.75;5.43;;;20.20;99.90;;;;;;5017869;28;20057;-92
2023/10/13 11:39:52;;;;;;;13.30;5.65;;;19.50;99.90;;;;;;5010503;28;20068;-89
2023/10/13 11:42:18;;;;;;;12.13;5.78;;;19.40;99.90;;;;;;5031026;28;20767;-87
2023/10/13 11:44:43;;;;;;;15.13;5.82;;;20.00;99.90;;;;;;5014266;28;20775;-89
2023/10/13 11:50:11;;;;;;;12.73;5.63;;;19.80;99.90;;;;;;4992465;28;20061;-89
2023/10/13 11:52:36;;;;;;;11.73;5.65;;;19.70;99.90;;;;;;5022080;28;20113;-89
2023/10/13 11:55:02;;;;;;;11.65;5.43;;;19.90;99.90;;;;;;5031154;28;20057;-91
2023/10/13 11:57:28;;;;;;;10.23;5.80;;;19.80;99.90;;;;;;5014094;28;20106;-88
2023/10/13 11:59:54;;;;;;;17.25;6.57;;;19.80;99.90;;;;;;5031598;28;20128;-88
2023/10/13 12:04:53;;;;;;;10.38;5.45;;;20.10;99.90;;;;;;5027152;28;20085;-90
2023/10/13 12:07:20;;;;;;;15.20;5.57;;;20.50;99.90;;;;;;5029398;28;20048;-89
2023/10/13 12:12:23;;;;;;;13.27;6.68;;;20.00;99.90;;;;;;5029921;28;20049;-87
2023/10/13 12:14:52;;;;;;;15.02;5.78;;;19.70;99.90;;;;;;5027055;28;20108;-87
2023/10/13 12:17:24;;;;;;;14.95;6.45;;;19.70;99.90;;;;;;5029533;28;20052;-87
2023/10/13 12:20:00;;;;;;;12.32;5.63;;;19.70;99.90;;;;;;5033596;28;20088;-89
2023/10/13 12:22:28;;;;;;;11.48;5.95;;;19.70;99.90;;;;;;5006866;28;20050;-86
2023/10/13 12:24:57;;;;;;;15.20;6.20;;;19.70;99.90;;;;;;5009665;28;20050;-87
2023/10/13 12:27:23;;;;;;;18.38;6.57;;;19.60;99.90;;;;;;5009129;28;20468;-87
2023/10/13 12:29:51;;;;;;;14.73;5.85;;;19.60;99.90;;;;;;5009315;28;20042;-88
2023/10/13 12:32:25;;;;;;;17.10;6.43;;;19.60;99.90;;;;;;5009763;28;20476;-89
2023/10/13 12:51:21;;;;;;;14.80;5.78;;;19.70;99.90;;;;;;5031377;28;20099;-88
2023/10/13 12:53:51;;;;;;;15.93;6.93;;;19.70;99.90;;;;;;5011542;28;20519;-90
2023/10/13 12:56:25;;;;;;;12.68;6.00;;;20.20;99.90;;;;;;5028975;28;20048;-89
2023/10/13 12:58:52;;;;;;;14.65;7.28;;;20.70;99.90;;;;;;5020987;28;20054;-85
2023/10/13 13:01:21;;;;;;;19.08;6.38;;;20.00;99.90;;;;;;5027350;28;20053;-85
2023/10/13 13:03:55;;;;;;;20.98;6.82;;;20.10;99.90;;;;;;5026963;28;20091;-86
2023/10/13 13:06:25;;;;;;;12.85;6.28;;;20.10;99.90;;;;;;5026202;28;20090;-85
2023/10/13 13:08:54;;;;;;;15.48;6.65;;;20.10;99.90;;;;;;5027240;28;20041;-87
2023/10/13 13:11:20;;;;;;;10.68;6.00;;;20.10;99.90;;;;;;5027136;28;20424;-87
2023/10/13 13:13:46;;;;;;;16.95;6.28;;;20.30;99.90;;;;;;5027367;28;20053;-86
2023/10/13 13:16:23;;;;;;;12.73;6.53;;;20.00;99.90;;;;;;5026326;28;20128;-87
2023/10/13 13:18:50;;;;;;;13.80;7.20;;;20.00;99.90;;;;;;5025988;28;20049;-85
2023/10/13 13:21:23;;;;;;;12.43;6.18;;;20.00;99.90;;;;;;5026644;28;20064;-86
2023/10/13 13:23:55;;;;;;;15.07;6.78;;;20.10;99.90;;;;;;5027075;28;20054;-87
2023/10/13 13:26:22;;;;;;;12.27;6.00;;;20.40;99.90;;;;;;5028384;28;22045;-87
2023/10/13 13:28:51;;;;;;;18.80;6.13;;;20.10;99.90;;;;;;5024596;28;20495;-87
2023/10/13 13:31:18;;;;;;;11.73;6.22;;;20.10;99.90;;;;;;5028126;28;20051;-81
2023/10/13 13:33:43;;;;;;;15.30;6.30;;;20.10;99.90;;;;;;5027444;28;20053;-92
2023/10/13 13:36:15;;;;;;;13.57;6.65;;;20.10;99.90;;;;;;5027939;28;20407;-87
2023/10/13 13:38:54;;;;;;;13.18;6.22;;;19.80;99.90;;;;;;5028921;28;20505;-87
2023/10/13 13:41:20;;;;;;;14.80;7.40;;;19.80;99.90;;;;;;5025528;28;20049;-87
2023/10/13 13:46:17;;;;;;;13.15;6.88;;;19.60;99.90;;;;;;5027896;28;20396;-88
2023/10/13 13:48:43;;;;;;;16.38;7.00;;;19.50;99.90;;;;;;5010562;28;20073;-87
2023/10/13 13:51:14;;;;;;;16.42;7.18;;;19.40;99.90;;;;;;5027100;28;20100;-86
2023/10/13 13:53:45;;;;;;;14.77;7.00;;;19.30;99.90;;;;;;5026964;28;20376;-87
2023/10/13 13:56:15;;;;;;;17.20;7.30;;;19.20;99.90;;;;;;5025975;28;20119;-87
2023/10/13 13:58:48;;;;;;;17.15;7.10;;;19.10;99.90;;;;;;5026587;28;20045;-88
2023/10/13 14:01:26;;;;;;;16.90;7.55;;;19.00;99.90;;;;;;5026367;28;20133;-85
2023/10/13 14:03:56;;;;;;;14.02;7.07;;;19.80;99.90;;;;;;5027278;28;20574;-84
2023/10/13 14:06:24;;;;;;;19.05;7.75;;;18.90;99.90;;;;;;5009597;28;20511;-85
2023/10/13 14:08:54;;;;;;;14.23;7.50;;;18.90;99.90;;;;;;5024012;28;20117;-84
2023/10/13 14:12:25;;;;;;;16.17;7.40;;;18.80;99.90;;;;;;5026329;28;20109;-85
2023/10/13 14:14:35;;;;;;;13.68;7.45;;;19.50;99.90;;;;;;5023836;28;20053;-86
2023/10/13 14:17:09;;;;;;;14.85;7.43;;;18.70;99.90;;;;;;5023394;28;20053;-87
2023/10/13 14:19:40;;;;;;;14.40;7.75;;;18.70;99.90;;;;;;5023327;28;20057;-86
2023/10/13 14:22:06;;;;;;;14.52;7.90;;;18.70;99.90;;;;;;4991638;28;20145;-86
2023/10/13 14:24:35;;;;;;;12.65;6.95;;;18.70;99.90;;;;;;5006642;28;20156;-85
2023/10/13 14:27:23;;;;;;;13.00;7.30;;;18.70;99.90;;;;;;5010843;28;20132;-84
2023/10/13 14:29:52;;;;;;;15.93;8.20;;;18.70;99.90;;;;;;5026304;28;20576;-85
2023/10/13 14:32:18;;;;;;;14.40;7.78;;;18.70;99.90;;;;;;5025765;28;20049;-86
2023/10/13 14:34:45;;;;;;;16.90;7.50;;;18.70;99.90;;;;;;5026526;28;20838;-87
2023/10/13 14:37:12;;;;;;;15.77;7.32;;;18.90;99.90;;;;;;5025714;28;20045;-86
2023/10/13 14:39:39;;;;;;;14.07;7.47;;;18.80;99.90;;;;;;5026848;28;20463;-84
2023/10/13 14:42:07;;;;;;;21.60;8.13;;;18.70;99.90;;;;;;5025955;28;20519;-83
2023/10/13 14:44:33;;;;;;;13.25;6.97;;;18.70;99.90;;;;;;5023252;28;20049;-86
2023/10/13 14:47:00;;;;;;;13.82;6.78;;;18.70;99.90;;;;;;5024936;28;20495;-84
2023/10/13 14:49:26;;;;;;;13.68;7.13;;;18.70;99.90;;;;;;5042243;28;20486;-85
2023/10/13 14:51:52;;;;;;;16.80;8.00;;;18.90;99.90;;;;;;5028256;28;20175;-83
2023/10/13 14:54:25;;;;;;;11.65;6.55;;;18.90;99.90;;;;;;5029913;28;20451;-84
2023/10/13 14:56:54;;;;;;;17.98;7.78;;;18.80;99.90;;;;;;5028940;28;20060;-84
2023/10/13 14:59:22;;;;;;;16.75;8.10;;;18.80;99.90;;;;;;5029831;28;20094;-85
2023/10/13 15:01:49;;;;;;;16.65;7.55;;;18.80;99.90;;;;;;5029204;28;20093;-86
2023/10/13 15:04:14;;;;;;;15.27;7.68;;;18.80;99.90;;;;;;5027455;28;20056;-85
2023/10/13 15:06:44;;;;;;;14.55;8.48;;;18.70;99.90;;;;;;5030020;28;20041;-86
2023/10/13 15:09:11;;;;;;;12.32;7.50;;;18.60;99.90;;;;;;5012035;28;20529;-84
2023/10/13 15:11:37;;;;;;;17.88;8.45;;;18.60;99.90;;;;;;5028038;28;20325;-85
2023/10/13 15:14:03;;;;;;;21.33;8.57;;;18.50;99.90;;;;;;5029862;28;20075;-86
2023/10/13 15:16:29;;;;;;;18.63;9.32;;;18.40;99.90;;;;;;5029432;28;20427;-85
2023/10/13 15:18:56;;;;;;;15.95;8.52;;;18.20;99.90;;;;;;5027852;28;20046;-84
2023/10/13 15:21:34;;;;;;;19.88;9.23;;;18.20;99.90;;;;;;5027254;28;20100;-85
2023/10/13 15:24:04;;;;;;;13.35;7.95;;;18.10;99.90;;;;;;5012006;28;20048;-85
2023/10/13 15:26:37;;;;;;;18.48;8.60;;;18.00;99.90;;;;;;5028787;28;20145;-82
2023/10/13 15:29:08;;;;;;;18.77;9.07;;;18.00;99.90;;;;;;5030692;28;20411;-86
2023/10/13 15:34:12;;;;;;;16.63;8.45;;;17.90;99.90;;;;;;5030127;28;20069;-85
2023/10/13 15:36:40;;;;;;;14.25;8.50;;;18.00;99.90;;;;;;5029772;28;20053;-86
2023/10/13 15:39:10;;;;;;;16.20;9.00;;;17.80;99.90;;;;;;5029035;28;20419;-87
2023/10/13 15:41:38;;;;;;;14.23;8.57;;;17.80;99.90;;;;;;5027779;28;20045;-85
2023/10/13 15:44:06;;;;;;;16.58;8.20;;;17.80;99.90;;;;;;5029109;28;20042;-87
2023/10/13 15:46:32;;;;;;;16.77;8.02;;;17.80;99.90;;;;;;5026401;28;20128;-85
2023/10/13 15:48:59;;;;;;;20.08;9.18;;;17.80;99.90;;;;;;5028263;28;20133;-85
2023/10/13 15:51:25;;;;;;;14.45;8.23;;;17.80;99.90;;;;;;5029061;28;20160;-86
2023/10/13 15:53:51;;;;;;;17.00;8.52;;;17.80;99.90;;;;;;5029700;28;20129;-85
2023/10/13 15:56:17;;;;;;;17.52;8.80;;;17.70;99.90;;;;;;5028155;28;20503;-87
2023/10/13 15:58:49;;;;;;;14.68;8.55;;;17.70;99.90;;;;;;5029220;28;20057;-86
2023/10/13 16:01:16;;;;;;;13.25;8.55;;;18.40;99.90;;;;;;5027713;28;20085;-86
2023/10/13 16:03:49;;;;;;;16.60;7.47;;;17.70;99.90;;;;;;5027387;28;20159;-86
2023/10/13 16:06:15;;;;;;;13.57;7.78;;;17.70;99.90;;;;;;5028474;28;20076;-86
2023/10/13 16:08:42;;;;;;;15.13;6.78;;;17.70;99.90;;;;;;5028651;28;20071;-87
2023/10/13 16:11:13;;;;;;;12.32;6.15;;;18.20;99.90;;;;;;5027783;28;20049;-85
2023/10/13 16:13:42;;;;;;;8.90;5.50;;;17.60;99.90;;;;;;5011910;28;20045;-87
2023/10/13 16:16:19;;;;;;;8.95;5.35;;;18.40;99.90;;;;;;5028177;28;20060;-85
2023/10/13 16:18:48;;;;;;;9.80;5.38;;;17.60;99.90;;;;;;5027730;28;20087;-86
2023/10/13 16:21:14;;;;;;;8.18;4.90;;;18.30;99.90;;;;;;5027560;28;20534;-84
2023/10/13 16:23:41;;;;;;;8.75;4.60;;;17.60;99.90;;;;;;5011008;28;20103;-89
2023/10/13 16:26:08;;;;;;;9.15;4.60;;;17.60;99.90;;;;;;5027132;28;20499;-84